sensor_id;sensor_type;location;lat;lon;timestamp;P1;P2;P0
77413;PMS7003;66486;49.992;19.164;2023-06-10T00:01:48;36.60;36.60;23.40
77413;PMS7003;66486;49.992;19.164;2023-06-10T00:04:14;37.00;36.00;21.75
77413;PMS7003;66486;49.992;19.164;2023-06-10T00:06:45;31.40;31.40;22.20
77413;PMS7003;66486;49.992;19.164;2023-06-10T00:09:15;31.00;30.00;20.75
77413;PMS7003;66486;49.992;19.164;2023-06-10T00:11:41;37.40;37.40;22.60
77413;PMS7003;66486;49.992;19.164;2023-06-10T00:14:08;39.20;38.00;22.60
77413;PMS7003;66486;49.992;19.164;2023-06-10T00:16:34;28.60;28.40;18.60
77413;PMS7003;66486;49.992;19.164;2023-06-10T00:19:01;37.80;37.40;19.60
77413;PMS7003;66486;49.992;19.164;2023-06-10T00:21:32;46.60;40.60;25.20
77413;PMS7003;66486;49.992;19.164;2023-06-10T00:24:05;35.00;34.20;24.60
77413;PMS7003;66486;49.992;19.164;2023-06-10T00:26:32;36.25;35.25;19.00
77413;PMS7003;66486;49.992;19.164;2023-06-10T00:28:59;32.80;31.80;18.20
77413;PMS7003;66486;49.992;19.164;2023-06-10T00:31:25;33.25;33.25;20.75
77413;PMS7003;66486;49.992;19.164;2023-06-10T00:33:52;30.20;30.20;20.80
77413;PMS7003;66486;49.992;19.164;2023-06-10T00:36:18;29.75;28.50;19.00
77413;PMS7003;66486;49.992;19.164;2023-06-10T00:38:44;32.20;32.20;19.00
77413;PMS7003;66486;49.992;19.164;2023-06-10T00:41:10;34.40;33.80;20.60
77413;PMS7003;66486;49.992;19.164;2023-06-10T00:43:36;28.75;28.75;19.75
77413;PMS7003;66486;49.992;19.164;2023-06-10T00:46:02;32.50;32.50;19.00
77413;PMS7003;66486;49.992;19.164;2023-06-10T00:48:28;29.50;29.50;19.00
77413;PMS7003;66486;49.992;19.164;2023-06-10T00:50:54;30.00;30.00;20.40
77413;PMS7003;66486;49.992;19.164;2023-06-10T00:53:21;25.75;25.50;18.50
77413;PMS7003;66486;49.992;19.164;2023-06-10T00:55:48;27.00;27.00;20.20
77413;PMS7003;66486;49.992;19.164;2023-06-10T00:58:14;33.60;33.40;23.80
77413;PMS7003;66486;49.992;19.164;2023-06-10T01:00:41;36.00;35.60;21.60
77413;PMS7003;66486;49.992;19.164;2023-06-10T01:03:07;34.33;31.67;19.33
77413;PMS7003;66486;49.992;19.164;2023-06-10T01:05:36;27.20;27.20;17.20
77413;PMS7003;66486;49.992;19.164;2023-06-10T01:10:41;31.25;30.75;20.25
77413;PMS7003;66486;49.992;19.164;2023-06-10T01:13:13;31.80;31.80;19.40
77413;PMS7003;66486;49.992;19.164;2023-06-10T01:15:40;30.00;30.00;19.00
77413;PMS7003;66486;49.992;19.164;2023-06-10T01:18:07;33.80;33.20;22.00
77413;PMS7003;66486;49.992;19.164;2023-06-10T01:20:36;34.75;33.25;21.00
77413;PMS7003;66486;49.992;19.164;2023-06-10T01:23:06;39.50;37.00;20.00
77413;PMS7003;66486;49.992;19.164;2023-06-10T01:25:34;29.80;29.80;18.60
77413;PMS7003;66486;49.992;19.164;2023-06-10T01:28:19;34.20;33.20;22.80
77413;PMS7003;66486;49.992;19.164;2023-06-10T01:31:03;31.25;31.25;23.50
77413;PMS7003;66486;49.992;19.164;2023-06-10T01:33:52;32.00;32.00;22.00
77413;PMS7003;66486;49.992;19.164;2023-06-10T01:36:19;38.00;37.40;24.00
77413;PMS7003;66486;49.992;19.164;2023-06-10T01:38:48;34.40;33.20;23.40
77413;PMS7003;66486;49.992;19.164;2023-06-10T01:41:16;37.40;37.40;23.60
77413;PMS7003;66486;49.992;19.164;2023-06-10T01:43:43;39.20;38.40;24.60
77413;PMS7003;66486;49.992;19.164;2023-06-10T01:46:10;39.40;37.00;26.40
77413;PMS7003;66486;49.992;19.164;2023-06-10T01:48:39;34.80;33.20;23.20
77413;PMS7003;66486;49.992;19.164;2023-06-10T01:51:07;33.75;33.75;20.75
77413;PMS7003;66486;49.992;19.164;2023-06-10T01:53:33;30.25;29.75;18.75
77413;PMS7003;66486;49.992;19.164;2023-06-10T01:55:59;32.25;31.25;19.00
77413;PMS7003;66486;49.992;19.164;2023-06-10T01:58:25;35.00;34.80;22.80
77413;PMS7003;66486;49.992;19.164;2023-06-10T02:00:51;39.40;38.40;23.60
77413;PMS7003;66486;49.992;19.164;2023-06-10T02:03:17;41.50;40.00;20.75
77413;PMS7003;66486;49.992;19.164;2023-06-10T02:05:44;45.80;41.80;26.40
77413;PMS7003;66486;49.992;19.164;2023-06-10T02:08:09;52.50;45.75;27.25
77413;PMS7003;66486;49.992;19.164;2023-06-10T02:10:35;39.60;37.40;25.60
77413;PMS7003;66486;49.992;19.164;2023-06-10T02:13:01;48.00;43.40;27.60
77413;PMS7003;66486;49.992;19.164;2023-06-10T02:15:28;51.60;44.40;26.80
77413;PMS7003;66486;49.992;19.164;2023-06-10T02:17:53;55.75;47.25;28.75
77413;PMS7003;66486;49.992;19.164;2023-06-10T02:20:20;48.00;42.60;25.40
77413;PMS7003;66486;49.992;19.164;2023-06-10T02:22:46;41.50;40.00;24.25
77413;PMS7003;66486;49.992;19.164;2023-06-10T02:25:12;41.00;39.00;25.60
77413;PMS7003;66486;49.992;19.164;2023-06-10T02:27:38;41.75;40.50;25.00
77413;PMS7003;66486;49.992;19.164;2023-06-10T02:30:04;43.50;40.00;26.50
77413;PMS7003;66486;49.992;19.164;2023-06-10T02:32:30;41.60;40.40;25.20
77413;PMS7003;66486;49.992;19.164;2023-06-10T02:34:56;37.25;35.75;26.00
77413;PMS7003;66486;49.992;19.164;2023-06-10T02:37:23;34.20;33.40;20.00
77413;PMS7003;66486;49.992;19.164;2023-06-10T02:39:49;38.75;36.25;21.00
77413;PMS7003;66486;49.992;19.164;2023-06-10T02:42:15;47.00;42.40;25.60
77413;PMS7003;66486;49.992;19.164;2023-06-10T02:44:41;46.75;42.75;24.75
77413;PMS7003;66486;49.992;19.164;2023-06-10T02:47:07;43.00;41.00;25.80
77413;PMS7003;66486;49.992;19.164;2023-06-10T02:49:33;39.50;38.25;25.25
77413;PMS7003;66486;49.992;19.164;2023-06-10T02:51:59;38.60;37.40;22.20
77413;PMS7003;66486;49.992;19.164;2023-06-10T02:54:24;33.25;32.25;16.50
77413;PMS7003;66486;49.992;19.164;2023-06-10T02:56:51;38.20;37.40;18.80
77413;PMS7003;66486;49.992;19.164;2023-06-10T02:59:18;38.80;38.20;24.20
77413;PMS7003;66486;49.992;19.164;2023-06-10T03:01:45;41.40;38.20;23.40
77413;PMS7003;66486;49.992;19.164;2023-06-10T03:04:11;44.40;41.40;27.00
77413;PMS7003;66486;49.992;19.164;2023-06-10T03:06:39;40.20;38.60;24.00
77413;PMS7003;66486;49.992;19.164;2023-06-10T03:09:06;40.80;39.20;25.00
77413;PMS7003;66486;49.992;19.164;2023-06-10T03:11:35;42.40;40.60;26.20
77413;PMS7003;66486;49.992;19.164;2023-06-10T03:14:01;43.75;41.25;25.25
77413;PMS7003;66486;49.992;19.164;2023-06-10T03:16:27;40.60;38.40;27.80
77413;PMS7003;66486;49.992;19.164;2023-06-10T03:18:55;45.60;42.00;24.20
77413;PMS7003;66486;49.992;19.164;2023-06-10T03:21:21;37.80;37.80;22.20
77413;PMS7003;66486;49.992;19.164;2023-06-10T03:23:47;41.40;39.60;25.80
77413;PMS7003;66486;49.992;19.164;2023-06-10T03:26:13;43.00;41.00;28.00
77413;PMS7003;66486;49.992;19.164;2023-06-10T03:28:41;41.40;40.00;25.60
77413;PMS7003;66486;49.992;19.164;2023-06-10T03:31:07;46.40;42.80;25.40
77413;PMS7003;66486;49.992;19.164;2023-06-10T03:33:33;51.00;45.00;28.00
77413;PMS7003;66486;49.992;19.164;2023-06-10T03:35:59;37.60;36.40;24.40
77413;PMS7003;66486;49.992;19.164;2023-06-10T03:38:25;45.75;42.00;27.25
77413;PMS7003;66486;49.992;19.164;2023-06-10T03:40:51;49.00;43.00;27.80
77413;PMS7003;66486;49.992;19.164;2023-06-10T03:43:17;50.75;45.00;28.75
77413;PMS7003;66486;49.992;19.164;2023-06-10T03:45:43;42.60;41.20;25.40
77413;PMS7003;66486;49.992;19.164;2023-06-10T03:48:09;41.50;39.25;25.75
77413;PMS7003;66486;49.992;19.164;2023-06-10T03:50:35;51.20;46.00;29.40
77413;PMS7003;66486;49.992;19.164;2023-06-10T03:53:04;51.20;44.80;28.40
77413;PMS7003;66486;49.992;19.164;2023-06-10T03:55:30;49.00;44.00;27.80
77413;PMS7003;66486;49.992;19.164;2023-06-10T03:57:56;49.60;44.20;28.00
77413;PMS7003;66486;49.992;19.164;2023-06-10T04:00:23;54.80;46.40;28.00
77413;PMS7003;66486;49.992;19.164;2023-06-10T04:02:49;45.00;41.80;25.20
77413;PMS7003;66486;49.992;19.164;2023-06-10T04:05:18;40.00;39.00;28.20
77413;PMS7003;66486;49.992;19.164;2023-06-10T04:07:48;56.20;48.00;29.00
77413;PMS7003;66486;49.992;19.164;2023-06-10T04:10:14;54.40;47.60;30.20
77413;PMS7003;66486;49.992;19.164;2023-06-10T04:12:41;61.60;50.80;32.00
77413;PMS7003;66486;49.992;19.164;2023-06-10T04:15:07;61.60;52.40;30.40
77413;PMS7003;66486;49.992;19.164;2023-06-10T04:17:34;56.00;48.60;30.40
77413;PMS7003;66486;49.992;19.164;2023-06-10T04:20:00;49.80;45.00;26.40
77413;PMS7003;66486;49.992;19.164;2023-06-10T04:22:26;39.00;36.75;25.25
77413;PMS7003;66486;49.992;19.164;2023-06-10T04:24:52;63.00;52.60;31.60
77413;PMS7003;66486;49.992;19.164;2023-06-10T04:27:18;52.00;44.50;26.50
77413;PMS7003;66486;49.992;19.164;2023-06-10T04:29:44;48.00;43.80;29.00
77413;PMS7003;66486;49.992;19.164;2023-06-10T04:32:10;53.75;46.75;30.00
77413;PMS7003;66486;49.992;19.164;2023-06-10T04:34:38;57.80;49.60;30.80
77413;PMS7003;66486;49.992;19.164;2023-06-10T04:37:06;58.00;47.20;29.80
77413;PMS7003;66486;49.992;19.164;2023-06-10T04:39:32;58.20;49.00;29.80
77413;PMS7003;66486;49.992;19.164;2023-06-10T04:41:58;62.25;52.00;30.00
77413;PMS7003;66486;49.992;19.164;2023-06-10T04:44:26;57.20;49.60;31.80
77413;PMS7003;66486;49.992;19.164;2023-06-10T04:46:52;59.20;48.80;30.40
77413;PMS7003;66486;49.992;19.164;2023-06-10T04:49:18;59.40;51.20;31.40
77413;PMS7003;66486;49.992;19.164;2023-06-10T04:51:44;55.75;48.25;28.50
77413;PMS7003;66486;49.992;19.164;2023-06-10T04:54:10;57.80;49.20;31.60
77413;PMS7003;66486;49.992;19.164;2023-06-10T04:56:36;55.75;48.00;31.50
77413;PMS7003;66486;49.992;19.164;2023-06-10T04:59:02;54.00;45.80;30.00
77413;PMS7003;66486;49.992;19.164;2023-06-10T05:01:28;47.75;43.25;29.00
77413;PMS7003;66486;49.992;19.164;2023-06-10T05:03:54;57.60;49.60;31.60
77413;PMS7003;66486;49.992;19.164;2023-06-10T05:06:20;49.75;44.75;30.75
77413;PMS7003;66486;49.992;19.164;2023-06-10T05:08:46;55.20;46.00;30.00
77413;PMS7003;66486;49.992;19.164;2023-06-10T05:11:12;50.40;44.00;28.80
77413;PMS7003;66486;49.992;19.164;2023-06-10T05:13:38;51.40;45.20;27.00
77413;PMS7003;66486;49.992;19.164;2023-06-10T05:16:05;55.25;47.75;29.50
77413;PMS7003;66486;49.992;19.164;2023-06-10T05:18:32;58.20;50.00;32.40
77413;PMS7003;66486;49.992;19.164;2023-06-10T05:20:58;48.00;44.00;29.00
77413;PMS7003;66486;49.992;19.164;2023-06-10T05:23:24;57.80;49.80;30.20
77413;PMS7003;66486;49.992;19.164;2023-06-10T05:25:50;50.50;44.25;28.00
77413;PMS7003;66486;49.992;19.164;2023-06-10T05:28:16;47.40;42.40;27.00
77413;PMS7003;66486;49.992;19.164;2023-06-10T05:30:42;41.25;39.00;28.25
77413;PMS7003;66486;49.992;19.164;2023-06-10T05:33:08;52.00;46.00;28.80
77413;PMS7003;66486;49.992;19.164;2023-06-10T05:35:34;46.67;42.67;27.00
77413;PMS7003;66486;49.992;19.164;2023-06-10T05:38:00;43.25;41.00;26.00
77413;PMS7003;66486;49.992;19.164;2023-06-10T05:40:26;44.00;41.25;24.25
77413;PMS7003;66486;49.992;19.164;2023-06-10T05:42:52;50.00;44.00;27.75
77413;PMS7003;66486;49.992;19.164;2023-06-10T05:45:18;39.67;38.33;27.00
77413;PMS7003;66486;49.992;19.164;2023-06-10T05:47:44;35.00;34.25;21.50
77413;PMS7003;66486;49.992;19.164;2023-06-10T05:50:10;43.25;40.00;26.25
77413;PMS7003;66486;49.992;19.164;2023-06-10T05:52:36;44.00;40.75;26.75
77413;PMS7003;66486;49.992;19.164;2023-06-10T05:55:02;38.75;37.75;23.75
77413;PMS7003;66486;49.992;19.164;2023-06-10T05:57:29;33.50;33.25;23.75
77413;PMS7003;66486;49.992;19.164;2023-06-10T05:59:55;31.67;31.67;21.33
77413;PMS7003;66486;49.992;19.164;2023-06-10T06:02:21;30.25;30.25;23.00
77413;PMS7003;66486;49.992;19.164;2023-06-10T06:04:46;30.67;30.67;21.33
77413;PMS7003;66486;49.992;19.164;2023-06-10T06:07:13;31.25;31.00;22.50
77413;PMS7003;66486;49.992;19.164;2023-06-10T06:09:39;34.25;33.25;20.50
77413;PMS7003;66486;49.992;19.164;2023-06-10T06:12:06;28.50;28.50;21.25
77413;PMS7003;66486;49.992;19.164;2023-06-10T06:14:32;28.50;27.50;18.00
77413;PMS7003;66486;49.992;19.164;2023-06-10T06:17:03;33.00;31.25;21.75
77413;PMS7003;66486;49.992;19.164;2023-06-10T06:19:29;28.00;28.00;17.75
77413;PMS7003;66486;49.992;19.164;2023-06-10T06:21:55;29.75;28.25;20.00
77413;PMS7003;66486;49.992;19.164;2023-06-10T06:24:21;15.67;15.67;13.67
77413;PMS7003;66486;49.992;19.164;2023-06-10T06:26:47;24.00;24.00;17.25
77413;PMS7003;66486;49.992;19.164;2023-06-10T06:29:13;21.00;20.33;17.00
77413;PMS7003;66486;49.992;19.164;2023-06-10T06:31:39;22.50;22.50;16.50
77413;PMS7003;66486;49.992;19.164;2023-06-10T06:34:05;22.67;22.67;17.00
77413;PMS7003;66486;49.992;19.164;2023-06-10T06:36:31;23.25;20.75;15.25
77413;PMS7003;66486;49.992;19.164;2023-06-10T06:38:57;24.00;24.00;16.33
77413;PMS7003;66486;49.992;19.164;2023-06-10T06:41:26;22.00;22.00;16.50
77413;PMS7003;66486;49.992;19.164;2023-06-10T06:43:53;27.50;27.00;19.25
77413;PMS7003;66486;49.992;19.164;2023-06-10T06:46:20;21.00;21.00;16.00
77413;PMS7003;66486;49.992;19.164;2023-06-10T06:48:46;16.75;16.25;13.00
77413;PMS7003;66486;49.992;19.164;2023-06-10T06:51:13;23.00;23.00;17.00
77413;PMS7003;66486;49.992;19.164;2023-06-10T06:53:39;23.25;22.50;16.75
77413;PMS7003;66486;49.992;19.164;2023-06-10T06:56:10;23.50;23.50;16.00
77413;PMS7003;66486;49.992;19.164;2023-06-10T06:58:39;20.25;20.00;14.75
77413;PMS7003;66486;49.992;19.164;2023-06-10T07:01:05;23.25;23.25;16.50
77413;PMS7003;66486;49.992;19.164;2023-06-10T07:03:31;18.75;18.75;15.25
77413;PMS7003;66486;49.992;19.164;2023-06-10T07:05:57;21.75;21.50;15.50
77413;PMS7003;66486;49.992;19.164;2023-06-10T07:08:24;21.50;21.50;15.00
77413;PMS7003;66486;49.992;19.164;2023-06-10T07:10:51;22.00;21.75;16.00
77413;PMS7003;66486;49.992;19.164;2023-06-10T07:13:16;19.00;19.00;15.33
77413;PMS7003;66486;49.992;19.164;2023-06-10T07:15:42;21.75;20.00;15.75
77413;PMS7003;66486;49.992;19.164;2023-06-10T07:18:08;21.00;21.00;15.00
77413;PMS7003;66486;49.992;19.164;2023-06-10T07:20:34;24.25;23.75;17.50
77413;PMS7003;66486;49.992;19.164;2023-06-10T07:23:00;22.00;22.00;14.00
77413;PMS7003;66486;49.992;19.164;2023-06-10T07:25:26;21.25;21.25;16.75
77413;PMS7003;66486;49.992;19.164;2023-06-10T07:27:52;20.00;19.00;14.00
77413;PMS7003;66486;49.992;19.164;2023-06-10T07:30:18;18.25;18.25;14.75
77413;PMS7003;66486;49.992;19.164;2023-06-10T07:32:44;23.67;23.67;16.00
77413;PMS7003;66486;49.992;19.164;2023-06-10T07:35:10;21.25;21.25;15.50
77413;PMS7003;66486;49.992;19.164;2023-06-10T07:37:36;21.75;21.75;15.50
77413;PMS7003;66486;49.992;19.164;2023-06-10T07:40:03;22.25;22.25;17.25
77413;PMS7003;66486;49.992;19.164;2023-06-10T07:42:31;23.50;23.00;15.25
77413;PMS7003;66486;49.992;19.164;2023-06-10T07:44:58;22.25;22.00;15.75
77413;PMS7003;66486;49.992;19.164;2023-06-10T07:47:24;21.33;21.33;15.00
77413;PMS7003;66486;49.992;19.164;2023-06-10T07:49:51;21.00;20.50;15.00
77413;PMS7003;66486;49.992;19.164;2023-06-10T07:52:16;18.00;18.00;12.33
77413;PMS7003;66486;49.992;19.164;2023-06-10T07:54:42;17.00;17.00;12.25
77413;PMS7003;66486;49.992;19.164;2023-06-10T07:57:08;19.00;19.00;14.33
77413;PMS7003;66486;49.992;19.164;2023-06-10T07:59:34;19.00;19.00;13.50
77413;PMS7003;66486;49.992;19.164;2023-06-10T08:02:00;19.00;19.00;14.33
77413;PMS7003;66486;49.992;19.164;2023-06-10T08:04:26;19.00;19.00;13.00
77413;PMS7003;66486;49.992;19.164;2023-06-10T08:06:52;20.33;20.33;15.00
77413;PMS7003;66486;49.992;19.164;2023-06-10T08:09:18;21.25;20.50;14.00
77413;PMS7003;66486;49.992;19.164;2023-06-10T08:11:46;15.75;15.75;12.00
77413;PMS7003;66486;49.992;19.164;2023-06-10T08:14:13;20.25;19.75;14.25
77413;PMS7003;66486;49.992;19.164;2023-06-10T08:16:39;12.67;12.67;10.00
77413;PMS7003;66486;49.992;19.164;2023-06-10T08:19:05;19.75;19.50;14.75
77413;PMS7003;66486;49.992;19.164;2023-06-10T08:21:31;17.67;17.67;13.67
77413;PMS7003;66486;49.992;19.164;2023-06-10T08:23:57;18.25;18.25;13.75
77413;PMS7003;66486;49.992;19.164;2023-06-10T08:26:23;18.75;18.00;15.25
77413;PMS7003;66486;49.992;19.164;2023-06-10T08:28:49;18.00;18.00;13.50
77413;PMS7003;66486;49.992;19.164;2023-06-10T08:31:15;17.33;16.33;13.33
77413;PMS7003;66486;49.992;19.164;2023-06-10T08:33:41;17.25;17.25;11.25
77413;PMS7003;66486;49.992;19.164;2023-06-10T08:36:07;21.00;21.00;16.00
77413;PMS7003;66486;49.992;19.164;2023-06-10T08:38:34;17.50;17.50;15.00
77413;PMS7003;66486;49.992;19.164;2023-06-10T08:40:59;22.00;20.50;15.25
77413;PMS7003;66486;49.992;19.164;2023-06-10T08:43:37;16.60;16.60;12.00
77413;PMS7003;66486;49.992;19.164;2023-06-10T08:46:08;20.25;20.25;14.50
77413;PMS7003;66486;49.992;19.164;2023-06-10T08:48:36;18.60;18.60;15.20
77413;PMS7003;66486;49.992;19.164;2023-06-10T08:51:07;19.00;19.00;15.00
77413;PMS7003;66486;49.992;19.164;2023-06-10T08:53:36;21.50;21.50;15.00
77413;PMS7003;66486;49.992;19.164;2023-06-10T08:56:07;21.80;21.80;16.00
77413;PMS7003;66486;49.992;19.164;2023-06-10T08:58:35;21.00;21.00;17.60
77413;PMS7003;66486;49.992;19.164;2023-06-10T09:01:07;22.25;22.25;17.50
77413;PMS7003;66486;49.992;19.164;2023-06-10T09:03:36;22.40;22.40;16.40
77413;PMS7003;66486;49.992;19.164;2023-06-10T09:06:04;23.40;23.40;17.20
77413;PMS7003;66486;49.992;19.164;2023-06-10T09:08:32;21.00;21.00;16.60
77413;PMS7003;66486;49.992;19.164;2023-06-10T09:11:00;22.40;22.40;17.20
77413;PMS7003;66486;49.992;19.164;2023-06-10T09:13:26;20.25;20.25;16.00
77413;PMS7003;66486;49.992;19.164;2023-06-10T09:15:52;23.75;23.75;16.00
77413;PMS7003;66486;49.992;19.164;2023-06-10T09:18:18;21.75;21.75;17.00
77413;PMS7003;66486;49.992;19.164;2023-06-10T09:20:44;19.60;19.60;15.20
77413;PMS7003;66486;49.992;19.164;2023-06-10T09:23:11;21.40;20.40;16.40
77413;PMS7003;66486;49.992;19.164;2023-06-10T09:25:38;17.00;17.00;12.80
77413;PMS7003;66486;49.992;19.164;2023-06-10T09:28:05;20.60;20.60;17.00
77413;PMS7003;66486;49.992;19.164;2023-06-10T09:30:38;16.40;16.00;12.60
77413;PMS7003;66486;49.992;19.164;2023-06-10T09:33:11;22.40;21.60;17.00
77413;PMS7003;66486;49.992;19.164;2023-06-10T09:35:47;20.60;20.60;15.80
77413;PMS7003;66486;49.992;19.164;2023-06-10T09:38:15;18.40;18.40;14.60
77413;PMS7003;66486;49.992;19.164;2023-06-10T09:40:49;21.00;20.40;17.00
77413;PMS7003;66486;49.992;19.164;2023-06-10T09:43:19;15.80;15.80;11.40
77413;PMS7003;66486;49.992;19.164;2023-06-10T09:45:49;21.80;21.80;17.00
77413;PMS7003;66486;49.992;19.164;2023-06-10T09:48:18;20.60;20.60;15.80
77413;PMS7003;66486;49.992;19.164;2023-06-10T09:50:45;20.00;19.40;15.60
77413;PMS7003;66486;49.992;19.164;2023-06-10T09:53:12;21.00;21.00;17.80
77413;PMS7003;66486;49.992;19.164;2023-06-10T09:55:38;16.20;16.20;12.00
77413;PMS7003;66486;49.992;19.164;2023-06-10T09:58:05;23.80;23.80;17.40
77413;PMS7003;66486;49.992;19.164;2023-06-10T10:00:34;21.40;21.40;15.20
77413;PMS7003;66486;49.992;19.164;2023-06-10T10:03:00;19.20;19.20;15.40
77413;PMS7003;66486;49.992;19.164;2023-06-10T10:05:27;18.60;18.60;15.80
77413;PMS7003;66486;49.992;19.164;2023-06-10T10:07:55;19.40;19.40;14.80
77413;PMS7003;66486;49.992;19.164;2023-06-10T10:10:22;21.80;21.80;17.20
77413;PMS7003;66486;49.992;19.164;2023-06-10T10:12:49;21.40;21.40;16.80
77413;PMS7003;66486;49.992;19.164;2023-06-10T10:15:19;23.00;22.00;15.80
77413;PMS7003;66486;49.992;19.164;2023-06-10T10:17:58;18.40;18.40;14.20
77413;PMS7003;66486;49.992;19.164;2023-06-10T10:20:37;21.60;21.60;17.00
77413;PMS7003;66486;49.992;19.164;2023-06-10T10:23:12;20.40;19.60;14.00
77413;PMS7003;66486;49.992;19.164;2023-06-10T10:25:43;21.40;20.60;16.80
77413;PMS7003;66486;49.992;19.164;2023-06-10T10:28:17;20.80;20.80;16.00
77413;PMS7003;66486;49.992;19.164;2023-06-10T10:30:52;21.20;21.20;16.00
77413;PMS7003;66486;49.992;19.164;2023-06-10T10:33:22;19.80;19.80;16.40
77413;PMS7003;66486;49.992;19.164;2023-06-10T10:35:58;19.60;19.60;15.80
77413;PMS7003;66486;49.992;19.164;2023-06-10T10:38:26;19.00;19.00;16.40
77413;PMS7003;66486;49.992;19.164;2023-06-10T10:40:53;17.40;17.40;14.60
77413;PMS7003;66486;49.992;19.164;2023-06-10T10:43:25;20.00;20.00;16.00
77413;PMS7003;66486;49.992;19.164;2023-06-10T10:45:59;19.80;19.80;15.80
77413;PMS7003;66486;49.992;19.164;2023-06-10T10:48:37;22.60;22.60;17.20
77413;PMS7003;66486;49.992;19.164;2023-06-10T10:51:04;19.00;19.00;15.80
77413;PMS7003;66486;49.992;19.164;2023-06-10T10:53:30;20.20;20.20;14.80
77413;PMS7003;66486;49.992;19.164;2023-06-10T10:55:59;17.50;17.00;14.25
77413;PMS7003;66486;49.992;19.164;2023-06-10T10:58:33;14.40;14.40;11.20
77413;PMS7003;66486;49.992;19.164;2023-06-10T11:00:59;15.40;14.40;10.20
77413;PMS7003;66486;49.992;19.164;2023-06-10T11:03:35;15.80;15.80;12.20
77413;PMS7003;66486;49.992;19.164;2023-06-10T11:06:13;14.40;13.80;11.00
77413;PMS7003;66486;49.992;19.164;2023-06-10T11:11:25;14.75;14.75;11.25
77413;PMS7003;66486;49.992;19.164;2023-06-10T11:16:30;11.20;11.20;10.40
77413;PMS7003;66486;49.992;19.164;2023-06-10T11:19:07;9.00;9.00;7.20
77413;PMS7003;66486;49.992;19.164;2023-06-10T11:24:31;10.00;9.00;6.50
77413;PMS7003;66486;49.992;19.164;2023-06-10T11:32:29;15.00;15.00;11.00
77413;PMS7003;66486;49.992;19.164;2023-06-10T11:35:00;15.75;15.75;11.50
77413;PMS7003;66486;49.992;19.164;2023-06-10T11:37:28;14.00;14.00;10.25
77413;PMS7003;66486;49.992;19.164;2023-06-10T11:39:55;14.25;14.25;10.75
77413;PMS7003;66486;49.992;19.164;2023-06-10T11:42:21;14.50;13.50;10.25
77413;PMS7003;66486;49.992;19.164;2023-06-10T11:44:49;14.25;14.25;10.00
77413;PMS7003;66486;49.992;19.164;2023-06-10T11:47:16;11.50;11.50;9.00
77413;PMS7003;66486;49.992;19.164;2023-06-10T11:49:44;9.25;9.25;7.50
77413;PMS7003;66486;49.992;19.164;2023-06-10T11:52:11;13.00;13.00;10.75
77413;PMS7003;66486;49.992;19.164;2023-06-10T11:54:37;15.75;15.75;11.00
77413;PMS7003;66486;49.992;19.164;2023-06-10T11:57:04;15.00;15.00;11.75
77413;PMS7003;66486;49.992;19.164;2023-06-10T11:59:31;15.00;15.00;12.00
77413;PMS7003;66486;49.992;19.164;2023-06-10T12:01:57;14.67;14.67;10.33
77413;PMS7003;66486;49.992;19.164;2023-06-10T12:04:24;20.00;19.75;15.50
77413;PMS7003;66486;49.992;19.164;2023-06-10T12:06:52;22.00;21.25;15.00
77413;PMS7003;66486;49.992;19.164;2023-06-10T12:09:20;16.75;16.75;12.50
77413;PMS7003;66486;49.992;19.164;2023-06-10T12:11:51;17.00;16.50;10.00
77413;PMS7003;66486;49.992;19.164;2023-06-10T12:17:23;12.50;12.50;10.75
77413;PMS7003;66486;49.992;19.164;2023-06-10T12:19:58;15.25;15.25;11.00
77413;PMS7003;66486;49.992;19.164;2023-06-10T12:22:26;12.25;12.25;9.00
77413;PMS7003;66486;49.992;19.164;2023-06-10T12:24:59;10.75;10.75;7.00
77413;PMS7003;66486;49.992;19.164;2023-06-10T12:27:26;9.00;9.00;7.00
77413;PMS7003;66486;49.992;19.164;2023-06-10T12:29:56;12.50;12.50;10.50
77413;PMS7003;66486;49.992;19.164;2023-06-10T12:35:06;13.50;13.50;10.00
77413;PMS7003;66486;49.992;19.164;2023-06-10T12:37:32;10.50;10.50;9.50
77413;PMS7003;66486;49.992;19.164;2023-06-10T12:40:03;12.00;12.00;8.75
77413;PMS7003;66486;49.992;19.164;2023-06-10T12:42:30;12.00;12.00;10.00
77413;PMS7003;66486;49.992;19.164;2023-06-10T12:44:57;10.00;10.00;8.25
77413;PMS7003;66486;49.992;19.164;2023-06-10T12:47:30;9.75;9.50;8.75
77413;PMS7003;66486;49.992;19.164;2023-06-10T12:49:58;12.75;12.75;10.25
77413;PMS7003;66486;49.992;19.164;2023-06-10T12:52:25;11.25;11.25;10.00
77413;PMS7003;66486;49.992;19.164;2023-06-10T12:54:51;10.25;10.25;9.50
77413;PMS7003;66486;49.992;19.164;2023-06-10T12:57:17;12.75;12.50;10.75
77413;PMS7003;66486;49.992;19.164;2023-06-10T12:59:44;11.00;11.00;10.00
77413;PMS7003;66486;49.992;19.164;2023-06-10T13:02:15;12.25;12.25;9.75
77413;PMS7003;66486;49.992;19.164;2023-06-10T13:04:45;8.00;8.00;6.50
77413;PMS7003;66486;49.992;19.164;2023-06-10T13:07:14;10.25;10.25;9.00
77413;PMS7003;66486;49.992;19.164;2023-06-10T13:09:41;12.50;12.50;9.75
77413;PMS7003;66486;49.992;19.164;2023-06-10T13:12:08;10.50;10.50;8.00
77413;PMS7003;66486;49.992;19.164;2023-06-10T13:14:35;11.75;11.75;9.75
77413;PMS7003;66486;49.992;19.164;2023-06-10T13:17:05;8.00;8.00;6.25
77413;PMS7003;66486;49.992;19.164;2023-06-10T13:19:35;10.25;10.25;9.25
77413;PMS7003;66486;49.992;19.164;2023-06-10T13:22:01;12.50;11.50;10.00
77413;PMS7003;66486;49.992;19.164;2023-06-10T13:24:28;14.00;13.75;9.75
77413;PMS7003;66486;49.992;19.164;2023-06-10T13:26:54;15.25;15.25;12.25
77413;PMS7003;66486;49.992;19.164;2023-06-10T13:29:22;12.50;11.75;10.50
77413;PMS7003;66486;49.992;19.164;2023-06-10T13:31:47;12.00;12.00;9.00
77413;PMS7003;66486;49.992;19.164;2023-06-10T13:34:13;10.75;10.75;9.25
77413;PMS7003;66486;49.992;19.164;2023-06-10T13:36:39;16.75;16.25;12.50
77413;PMS7003;66486;49.992;19.164;2023-06-10T13:39:06;13.25;13.25;10.00
77413;PMS7003;66486;49.992;19.164;2023-06-10T13:41:31;16.67;16.33;10.33
77413;PMS7003;66486;49.992;19.164;2023-06-10T13:43:57;13.75;13.50;11.00
77413;PMS7003;66486;49.992;19.164;2023-06-10T13:46:23;15.33;15.33;12.00
77413;PMS7003;66486;49.992;19.164;2023-06-10T13:48:49;14.25;14.25;11.00
77413;PMS7003;66486;49.992;19.164;2023-06-10T13:51:15;10.00;10.00;9.00
77413;PMS7003;66486;49.992;19.164;2023-06-10T13:53:41;13.00;13.00;11.25
77413;PMS7003;66486;49.992;19.164;2023-06-10T13:56:08;11.75;11.75;8.75
77413;PMS7003;66486;49.992;19.164;2023-06-10T13:58:34;14.00;13.50;11.00
77413;PMS7003;66486;49.992;19.164;2023-06-10T14:01:04;10.00;9.40;8.60